sensor_id;sensor_type;location;lat;lon;timestamp;temperature;humidity
59301;DHT22;45073;52.740;6.784;2022-12-22T00:02:23;9.10;99.90
59301;DHT22;45073;52.740;6.784;2022-12-22T00:05:19;9.10;99.90
59301;DHT22;45073;52.740;6.784;2022-12-22T00:08:05;9.10;99.90
59301;DHT22;45073;52.740;6.784;2022-12-22T00:10:50;9.10;99.90
59301;DHT22;45073;52.740;6.784;2022-12-22T00:13:34;9.10;99.90
59301;DHT22;45073;52.740;6.784;2022-12-22T00:16:19;9.10;99.90
59301;DHT22;45073;52.740;6.784;2022-12-22T00:19:11;9.10;99.90
59301;DHT22;45073;52.740;6.784;2022-12-22T00:22:00;9.10;99.90
59301;DHT22;45073;52.740;6.784;2022-12-22T00:24:44;9.20;99.90
59301;DHT22;45073;52.740;6.784;2022-12-22T00:27:29;9.20;99.90
59301;DHT22;45073;52.740;6.784;2022-12-22T00:30:14;9.20;99.90
59301;DHT22;45073;52.740;6.784;2022-12-22T00:33:00;9.20;99.90
59301;DHT22;45073;52.740;6.784;2022-12-22T00:35:45;9.20;99.90
59301;DHT22;45073;52.740;6.784;2022-12-22T00:38:30;9.20;99.90
59301;DHT22;45073;52.740;6.784;2022-12-22T00:41:14;9.20;99.90
59301;DHT22;45073;52.740;6.784;2022-12-22T00:43:58;9.20;99.90
59301;DHT22;45073;52.740;6.784;2022-12-22T00:46:43;9.20;99.90
59301;DHT22;45073;52.740;6.784;2022-12-22T00:49:30;9.20;99.90
59301;DHT22;45073;52.740;6.784;2022-12-22T00:52:16;9.20;99.90
59301;DHT22;45073;52.740;6.784;2022-12-22T00:55:02;9.30;99.90
59301;DHT22;45073;52.740;6.784;2022-12-22T00:57:47;9.30;99.90
59301;DHT22;45073;52.740;6.784;2022-12-22T01:00:31;9.30;99.90
59301;DHT22;45073;52.740;6.784;2022-12-22T01:03:15;9.30;99.90
59301;DHT22;45073;52.740;6.784;2022-12-22T01:06:01;9.30;99.90
59301;DHT22;45073;52.740;6.784;2022-12-22T01:08:45;9.30;99.90
59301;DHT22;45073;52.740;6.784;2022-12-22T01:11:29;9.30;99.90
59301;DHT22;45073;52.740;6.784;2022-12-22T01:14:15;9.30;99.90
59301;DHT22;45073;52.740;6.784;2022-12-22T01:17:00;9.30;99.90
59301;DHT22;45073;52.740;6.784;2022-12-22T01:19:44;9.30;99.90
59301;DHT22;45073;52.740;6.784;2022-12-22T01:22:28;9.30;99.90
59301;DHT22;45073;52.740;6.784;2022-12-22T01:25:16;9.30;99.90
59301;DHT22;45073;52.740;6.784;2022-12-22T01:28:01;9.30;99.90
59301;DHT22;45073;52.740;6.784;2022-12-22T01:30:46;9.30;99.90
59301;DHT22;45073;52.740;6.784;2022-12-22T01:33:30;9.30;99.90
59301;DHT22;45073;52.740;6.784;2022-12-22T01:36:15;9.30;99.90
59301;DHT22;45073;52.740;6.784;2022-12-22T01:38:59;9.30;99.90
59301;DHT22;45073;52.740;6.784;2022-12-22T01:41:43;9.30;99.90
59301;DHT22;45073;52.740;6.784;2022-12-22T01:44:29;9.30;99.90
59301;DHT22;45073;52.740;6.784;2022-12-22T01:50:18;9.30;99.90
59301;DHT22;45073;52.740;6.784;2022-12-22T01:53:06;9.30;99.90
59301;DHT22;45073;52.740;6.784;2022-12-22T01:55:52;9.30;99.90
59301;DHT22;45073;52.740;6.784;2022-12-22T01:58:41;9.30;99.90
59301;DHT22;45073;52.740;6.784;2022-12-22T02:01:28;9.30;99.90
59301;DHT22;45073;52.740;6.784;2022-12-22T02:04:15;9.30;99.90
59301;DHT22;45073;52.740;6.784;2022-12-22T02:07:09;9.40;99.90
59301;DHT22;45073;52.740;6.784;2022-12-22T02:10:10;9.40;99.90
59301;DHT22;45073;52.740;6.784;2022-12-22T02:13:18;9.40;99.90
59301;DHT22;45073;52.740;6.784;2022-12-22T02:16:17;9.40;99.90
59301;DHT22;45073;52.740;6.784;2022-12-22T02:22:18;9.40;99.90
59301;DHT22;45073;52.740;6.784;2022-12-22T02:25:16;9.40;99.90
59301;DHT22;45073;52.740;6.784;2022-12-22T02:28:03;9.40;99.90
59301;DHT22;45073;52.740;6.784;2022-12-22T02:30:49;9.40;99.90
59301;DHT22;45073;52.740;6.784;2022-12-22T02:33:34;9.40;99.90
59301;DHT22;45073;52.740;6.784;2022-12-22T02:36:43;9.40;99.90
59301;DHT22;45073;52.740;6.784;2022-12-22T02:43:07;9.40;99.90
59301;DHT22;45073;52.740;6.784;2022-12-22T02:46:20;9.40;99.90
59301;DHT22;45073;52.740;6.784;2022-12-22T02:52:29;9.40;99.90
59301;DHT22;45073;52.740;6.784;2022-12-22T02:55:15;9.40;99.90
59301;DHT22;45073;52.740;6.784;2022-12-22T02:58:00;9.50;99.90
59301;DHT22;45073;52.740;6.784;2022-12-22T03:00:45;9.40;99.90
59301;DHT22;45073;52.740;6.784;2022-12-22T03:03:29;9.40;99.90
59301;DHT22;45073;52.740;6.784;2022-12-22T03:06:13;9.40;99.90
59301;DHT22;45073;52.740;6.784;2022-12-22T03:08:57;9.40;99.90
59301;DHT22;45073;52.740;6.784;2022-12-22T03:11:42;9.40;99.90
59301;DHT22;45073;52.740;6.784;2022-12-22T03:14:26;9.40;99.90
59301;DHT22;45073;52.740;6.784;2022-12-22T03:17:10;9.40;99.90
59301;DHT22;45073;52.740;6.784;2022-12-22T03:19:54;9.40;99.90
59301;DHT22;45073;52.740;6.784;2022-12-22T03:22:38;9.40;99.90
59301;DHT22;45073;52.740;6.784;2022-12-22T03:25:22;9.40;99.90
59301;DHT22;45073;52.740;6.784;2022-12-22T03:28:07;9.40;99.90
59301;DHT22;45073;52.740;6.784;2022-12-22T03:30:33;9.40;99.90
59301;DHT22;45073;52.740;6.784;2022-12-22T03:32:59;9.40;99.90
59301;DHT22;45073;52.740;6.784;2022-12-22T03:35:25;9.40;99.90
59301;DHT22;45073;52.740;6.784;2022-12-22T03:37:51;9.40;99.90
59301;DHT22;45073;52.740;6.784;2022-12-22T03:40:17;9.40;99.90
59301;DHT22;45073;52.740;6.784;2022-12-22T03:42:42;9.40;99.90
59301;DHT22;45073;52.740;6.784;2022-12-22T03:45:26;9.40;99.90
59301;DHT22;45073;52.740;6.784;2022-12-22T03:48:11;9.40;99.90
59301;DHT22;45073;52.740;6.784;2022-12-22T03:50:36;9.40;99.90
59301;DHT22;45073;52.740;6.784;2022-12-22T03:53:02;9.40;99.90
59301;DHT22;45073;52.740;6.784;2022-12-22T03:55:28;9.30;99.90
59301;DHT22;45073;52.740;6.784;2022-12-22T03:57:54;9.40;99.90
59301;DHT22;45073;52.740;6.784;2022-12-22T04:00:19;9.40;99.90
59301;DHT22;45073;52.740;6.784;2022-12-22T04:02:45;9.40;99.90
59301;DHT22;45073;52.740;6.784;2022-12-22T04:05:10;9.40;99.90
59301;DHT22;45073;52.740;6.784;2022-12-22T04:07:36;9.40;99.90
59301;DHT22;45073;52.740;6.784;2022-12-22T04:10:03;9.40;99.90
59301;DHT22;45073;52.740;6.784;2022-12-22T04:12:50;9.40;99.90
59301;DHT22;45073;52.740;6.784;2022-12-22T04:15:21;9.40;99.90
59301;DHT22;45073;52.740;6.784;2022-12-22T04:17:47;9.40;99.90
59301;DHT22;45073;52.740;6.784;2022-12-22T04:20:12;9.40;99.90
59301;DHT22;45073;52.740;6.784;2022-12-22T04:22:38;9.40;99.90
59301;DHT22;45073;52.740;6.784;2022-12-22T04:25:04;9.40;99.90
59301;DHT22;45073;52.740;6.784;2022-12-22T04:27:30;9.40;99.90
59301;DHT22;45073;52.740;6.784;2022-12-22T04:29:55;9.40;99.90
59301;DHT22;45073;52.740;6.784;2022-12-22T04:32:21;9.40;99.90
59301;DHT22;45073;52.740;6.784;2022-12-22T04:34:46;9.40;99.90
59301;DHT22;45073;52.740;6.784;2022-12-22T04:37:12;9.40;99.90
59301;DHT22;45073;52.740;6.784;2022-12-22T04:39:37;9.40;99.90
59301;DHT22;45073;52.740;6.784;2022-12-22T04:42:03;9.40;99.90
59301;DHT22;45073;52.740;6.784;2022-12-22T04:44:29;9.50;99.90
59301;DHT22;45073;52.740;6.784;2022-12-22T04:46:54;9.50;99.90
59301;DHT22;45073;52.740;6.784;2022-12-22T04:49:20;9.50;99.90
59301;DHT22;45073;52.740;6.784;2022-12-22T04:51:45;9.50;99.90
59301;DHT22;45073;52.740;6.784;2022-12-22T04:54:11;9.50;99.90
59301;DHT22;45073;52.740;6.784;2022-12-22T04:56:36;9.50;99.90
59301;DHT22;45073;52.740;6.784;2022-12-22T04:59:02;9.50;99.90
59301;DHT22;45073;52.740;6.784;2022-12-22T05:01:28;9.50;99.90
59301;DHT22;45073;52.740;6.784;2022-12-22T05:03:53;9.50;99.90
59301;DHT22;45073;52.740;6.784;2022-12-22T05:06:19;9.50;99.90
59301;DHT22;45073;52.740;6.784;2022-12-22T05:08:44;9.50;99.90
59301;DHT22;45073;52.740;6.784;2022-12-22T05:11:10;9.50;99.90
59301;DHT22;45073;52.740;6.784;2022-12-22T05:13:36;9.50;99.90
59301;DHT22;45073;52.740;6.784;2022-12-22T05:16:10;9.50;99.90
59301;DHT22;45073;52.740;6.784;2022-12-22T05:18:37;9.50;99.90
59301;DHT22;45073;52.740;6.784;2022-12-22T05:21:06;9.50;99.90
59301;DHT22;45073;52.740;6.784;2022-12-22T05:23:32;9.50;99.90
59301;DHT22;45073;52.740;6.784;2022-12-22T05:25:57;9.50;99.90
59301;DHT22;45073;52.740;6.784;2022-12-22T05:28:23;9.50;99.90
59301;DHT22;45073;52.740;6.784;2022-12-22T05:30:49;9.50;99.90
59301;DHT22;45073;52.740;6.784;2022-12-22T05:33:14;9.50;99.90
59301;DHT22;45073;52.740;6.784;2022-12-22T05:35:40;9.50;99.90
59301;DHT22;45073;52.740;6.784;2022-12-22T05:38:05;9.50;99.90
59301;DHT22;45073;52.740;6.784;2022-12-22T05:40:31;9.50;99.90
59301;DHT22;45073;52.740;6.784;2022-12-22T05:42:57;9.50;99.90
59301;DHT22;45073;52.740;6.784;2022-12-22T05:45:22;9.50;99.90
59301;DHT22;45073;52.740;6.784;2022-12-22T05:47:50;9.50;99.90
59301;DHT22;45073;52.740;6.784;2022-12-22T05:50:25;9.40;99.90
59301;DHT22;45073;52.740;6.784;2022-12-22T05:52:51;9.50;99.90
59301;DHT22;45073;52.740;6.784;2022-12-22T05:55:16;9.40;99.90
59301;DHT22;45073;52.740;6.784;2022-12-22T05:57:42;9.40;99.90
59301;DHT22;45073;52.740;6.784;2022-12-22T06:00:13;9.40;99.90
59301;DHT22;45073;52.740;6.784;2022-12-22T06:02:40;9.40;99.90
59301;DHT22;45073;52.740;6.784;2022-12-22T06:05:06;9.40;99.90
59301;DHT22;45073;52.740;6.784;2022-12-22T06:07:31;9.40;99.90
59301;DHT22;45073;52.740;6.784;2022-12-22T06:09:57;9.40;99.90
59301;DHT22;45073;52.740;6.784;2022-12-22T06:12:22;9.40;99.90
59301;DHT22;45073;52.740;6.784;2022-12-22T06:14:48;9.40;99.90
59301;DHT22;45073;52.740;6.784;2022-12-22T06:17:14;9.40;99.90
59301;DHT22;45073;52.740;6.784;2022-12-22T06:19:39;9.40;99.90
59301;DHT22;45073;52.740;6.784;2022-12-22T06:22:05;9.40;99.90
59301;DHT22;45073;52.740;6.784;2022-12-22T06:24:31;9.40;99.90
59301;DHT22;45073;52.740;6.784;2022-12-22T06:26:56;9.40;99.90
59301;DHT22;45073;52.740;6.784;2022-12-22T06:29:22;9.40;99.90
59301;DHT22;45073;52.740;6.784;2022-12-22T06:31:48;9.30;99.90
59301;DHT22;45073;52.740;6.784;2022-12-22T06:34:13;9.30;99.90
59301;DHT22;45073;52.740;6.784;2022-12-22T06:36:45;9.30;99.90
59301;DHT22;45073;52.740;6.784;2022-12-22T06:39:12;9.30;99.90
59301;DHT22;45073;52.740;6.784;2022-12-22T06:41:38;9.30;99.90
59301;DHT22;45073;52.740;6.784;2022-12-22T06:44:22;9.30;99.90
59301;DHT22;45073;52.740;6.784;2022-12-22T06:46:48;9.30;99.90
59301;DHT22;45073;52.740;6.784;2022-12-22T06:49:13;9.30;99.90
59301;DHT22;45073;52.740;6.784;2022-12-22T06:51:39;9.30;99.90
59301;DHT22;45073;52.740;6.784;2022-12-22T06:54:05;9.30;99.90
59301;DHT22;45073;52.740;6.784;2022-12-22T06:56:30;9.30;99.90
59301;DHT22;45073;52.740;6.784;2022-12-22T06:58:56;9.40;99.90
59301;DHT22;45073;52.740;6.784;2022-12-22T07:01:21;9.40;99.90
59301;DHT22;45073;52.740;6.784;2022-12-22T07:03:47;9.40;99.90
59301;DHT22;45073;52.740;6.784;2022-12-22T07:06:13;9.40;99.90
59301;DHT22;45073;52.740;6.784;2022-12-22T07:08:38;9.40;99.90
59301;DHT22;45073;52.740;6.784;2022-12-22T07:11:04;9.50;99.90
59301;DHT22;45073;52.740;6.784;2022-12-22T07:13:32;9.50;99.90
59301;DHT22;45073;52.740;6.784;2022-12-22T07:16:00;9.50;99.90
59301;DHT22;45073;52.740;6.784;2022-12-22T07:18:27;9.50;99.90
59301;DHT22;45073;52.740;6.784;2022-12-22T07:20:53;9.50;99.90
59301;DHT22;45073;52.740;6.784;2022-12-22T07:23:19;9.50;99.90
59301;DHT22;45073;52.740;6.784;2022-12-22T07:25:44;9.50;99.90
59301;DHT22;45073;52.740;6.784;2022-12-22T07:28:10;9.50;99.90
59301;DHT22;45073;52.740;6.784;2022-12-22T07:30:36;9.40;99.90
59301;DHT22;45073;52.740;6.784;2022-12-22T07:33:02;9.40;99.90
59301;DHT22;45073;52.740;6.784;2022-12-22T07:35:28;9.40;99.90
59301;DHT22;45073;52.740;6.784;2022-12-22T07:37:54;9.30;99.90
59301;DHT22;45073;52.740;6.784;2022-12-22T07:40:19;9.30;99.90
59301;DHT22;45073;52.740;6.784;2022-12-22T07:42:45;9.30;99.90
59301;DHT22;45073;52.740;6.784;2022-12-22T07:45:16;9.20;99.90
59301;DHT22;45073;52.740;6.784;2022-12-22T07:47:42;9.20;99.90
59301;DHT22;45073;52.740;6.784;2022-12-22T07:50:18;9.10;99.90
59301;DHT22;45073;52.740;6.784;2022-12-22T07:52:54;9.00;99.90
59301;DHT22;45073;52.740;6.784;2022-12-22T07:55:20;8.90;99.90
59301;DHT22;45073;52.740;6.784;2022-12-22T07:57:46;8.90;99.90
59301;DHT22;45073;52.740;6.784;2022-12-22T08:00:12;8.80;99.90
59301;DHT22;45073;52.740;6.784;2022-12-22T08:02:38;8.80;99.90
59301;DHT22;45073;52.740;6.784;2022-12-22T08:05:04;8.70;99.90
59301;DHT22;45073;52.740;6.784;2022-12-22T08:07:30;8.70;99.90
59301;DHT22;45073;52.740;6.784;2022-12-22T08:09:57;8.60;99.90
59301;DHT22;45073;52.740;6.784;2022-12-22T08:12:23;8.50;99.90
59301;DHT22;45073;52.740;6.784;2022-12-22T08:14:48;8.30;99.90
59301;DHT22;45073;52.740;6.784;2022-12-22T08:17:14;8.20;99.90
59301;DHT22;45073;52.740;6.784;2022-12-22T08:19:40;8.10;99.90
59301;DHT22;45073;52.740;6.784;2022-12-22T08:22:05;8.10;99.90
59301;DHT22;45073;52.740;6.784;2022-12-22T08:24:31;8.00;99.90
59301;DHT22;45073;52.740;6.784;2022-12-22T08:27:00;8.00;99.90
59301;DHT22;45073;52.740;6.784;2022-12-22T08:29:41;7.90;99.90
59301;DHT22;45073;52.740;6.784;2022-12-22T08:32:08;7.90;99.90
59301;DHT22;45073;52.740;6.784;2022-12-22T08:34:34;7.80;99.90
59301;DHT22;45073;52.740;6.784;2022-12-22T08:37:01;7.80;99.90
59301;DHT22;45073;52.740;6.784;2022-12-22T08:39:31;7.80;99.90
59301;DHT22;45073;52.740;6.784;2022-12-22T08:42:00;7.90;99.90
59301;DHT22;45073;52.740;6.784;2022-12-22T08:44:28;7.90;99.90
59301;DHT22;45073;52.740;6.784;2022-12-22T08:46:56;7.90;99.90
59301;DHT22;45073;52.740;6.784;2022-12-22T08:49:23;8.00;99.90
59301;DHT22;45073;52.740;6.784;2022-12-22T08:51:49;8.00;99.90
59301;DHT22;45073;52.740;6.784;2022-12-22T08:54:15;8.10;99.90
59301;DHT22;45073;52.740;6.784;2022-12-22T08:56:41;8.10;99.90
59301;DHT22;45073;52.740;6.784;2022-12-22T08:59:07;8.20;99.90
59301;DHT22;45073;52.740;6.784;2022-12-22T09:01:38;8.20;99.90
59301;DHT22;45073;52.740;6.784;2022-12-22T09:04:05;8.10;99.90
59301;DHT22;45073;52.740;6.784;2022-12-22T09:06:33;8.10;99.90
59301;DHT22;45073;52.740;6.784;2022-12-22T09:09:01;8.10;99.90
59301;DHT22;45073;52.740;6.784;2022-12-22T09:11:28;8.00;99.90
59301;DHT22;45073;52.740;6.784;2022-12-22T09:13:55;8.00;99.90
59301;DHT22;45073;52.740;6.784;2022-12-22T09:16:23;8.00;99.90
59301;DHT22;45073;52.740;6.784;2022-12-22T09:18:48;8.00;99.90
59301;DHT22;45073;52.740;6.784;2022-12-22T09:21:15;7.90;99.90
59301;DHT22;45073;52.740;6.784;2022-12-22T09:23:41;7.90;99.90
59301;DHT22;45073;52.740;6.784;2022-12-22T09:26:12;7.90;99.90
59301;DHT22;45073;52.740;6.784;2022-12-22T09:28:38;7.80;99.90
59301;DHT22;45073;52.740;6.784;2022-12-22T09:31:04;7.80;99.90
59301;DHT22;45073;52.740;6.784;2022-12-22T09:33:31;7.80;99.90
59301;DHT22;45073;52.740;6.784;2022-12-22T09:35:56;7.80;99.90
59301;DHT22;45073;52.740;6.784;2022-12-22T09:38:25;7.70;99.90
59301;DHT22;45073;52.740;6.784;2022-12-22T09:40:55;7.70;99.90
59301;DHT22;45073;52.740;6.784;2022-12-22T09:43:26;7.70;99.90
59301;DHT22;45073;52.740;6.784;2022-12-22T09:45:53;7.70;99.90
59301;DHT22;45073;52.740;6.784;2022-12-22T09:48:19;7.70;99.90
59301;DHT22;45073;52.740;6.784;2022-12-22T09:50:45;7.70;99.90
59301;DHT22;45073;52.740;6.784;2022-12-22T09:53:20;7.70;99.90
59301;DHT22;45073;52.740;6.784;2022-12-22T09:55:48;7.70;99.90
59301;DHT22;45073;52.740;6.784;2022-12-22T09:58:28;7.70;99.90
59301;DHT22;45073;52.740;6.784;2022-12-22T10:06:31;7.60;99.90
59301;DHT22;45073;52.740;6.784;2022-12-22T10:11:52;7.60;99.90
59301;DHT22;45073;52.740;6.784;2022-12-22T10:14:18;7.60;99.90
59301;DHT22;45073;52.740;6.784;2022-12-22T10:16:44;7.60;99.90
59301;DHT22;45073;52.740;6.784;2022-12-22T10:19:11;7.60;99.90
59301;DHT22;45073;52.740;6.784;2022-12-22T10:21:37;7.70;99.90
59301;DHT22;45073;52.740;6.784;2022-12-22T10:24:38;7.70;99.90
59301;DHT22;45073;52.740;6.784;2022-12-22T10:27:04;7.70;99.90
59301;DHT22;45073;52.740;6.784;2022-12-22T10:29:31;7.70;99.90
59301;DHT22;45073;52.740;6.784;2022-12-22T10:31:59;7.70;99.90
59301;DHT22;45073;52.740;6.784;2022-12-22T10:34:25;7.80;99.90
59301;DHT22;45073;52.740;6.784;2022-12-22T10:36:54;7.90;99.90
59301;DHT22;45073;52.740;6.784;2022-12-22T10:39:23;8.00;99.90
59301;DHT22;45073;52.740;6.784;2022-12-22T10:41:51;8.10;99.90
59301;DHT22;45073;52.740;6.784;2022-12-22T10:44:27;8.20;99.90
59301;DHT22;45073;52.740;6.784;2022-12-22T10:46:58;8.40;99.90
59301;DHT22;45073;52.740;6.784;2022-12-22T10:49:26;8.50;99.90
59301;DHT22;45073;52.740;6.784;2022-12-22T10:54:43;8.40;99.90
59301;DHT22;45073;52.740;6.784;2022-12-22T10:59:48;8.40;99.90
59301;DHT22;45073;52.740;6.784;2022-12-22T11:04:51;8.50;99.90
59301;DHT22;45073;52.740;6.784;2022-12-22T11:07:17;8.60;99.90
59301;DHT22;45073;52.740;6.784;2022-12-22T11:09:42;8.80;99.90
59301;DHT22;45073;52.740;6.784;2022-12-22T11:23:07;8.50;99.90
59301;DHT22;45073;52.740;6.784;2022-12-22T11:25:43;8.30;99.90
59301;DHT22;45073;52.740;6.784;2022-12-22T11:28:30;8.20;99.90
59301;DHT22;45073;52.740;6.784;2022-12-22T11:34:03;8.30;99.90
59301;DHT22;45073;52.740;6.784;2022-12-22T11:39:52;8.70;99.90
59301;DHT22;45073;52.740;6.784;2022-12-22T11:48:06;9.20;99.90
59301;DHT22;45073;52.740;6.784;2022-12-22T11:50:47;9.50;99.90
59301;DHT22;45073;52.740;6.784;2022-12-22T11:59:01;10.30;99.90
59301;DHT22;45073;52.740;6.784;2022-12-22T12:10:06;12.30;99.90
59301;DHT22;45073;52.740;6.784;2022-12-22T12:15:45;12.70;99.90
59301;DHT22;45073;52.740;6.784;2022-12-22T12:18:45;13.10;99.90
59301;DHT22;45073;52.740;6.784;2022-12-22T12:27:43;15.70;99.90
59301;DHT22;45073;52.740;6.784;2022-12-22T12:30:16;16.00;92.00
59301;DHT22;45073;52.740;6.784;2022-12-22T12:32:57;16.40;93.10
59301;DHT22;45073;52.740;6.784;2022-12-22T12:35:37;16.80;90.50
59301;DHT22;45073;52.740;6.784;2022-12-22T12:38:37;16.80;85.00
59301;DHT22;45073;52.740;6.784;2022-12-22T12:41:14;16.70;85.00
59301;DHT22;45073;52.740;6.784;2022-12-22T12:43:44;16.90;85.60
59301;DHT22;45073;52.740;6.784;2022-12-22T12:52:08;17.10;79.40
59301;DHT22;45073;52.740;6.784;2022-12-22T12:54:41;17.30;79.20
59301;DHT22;45073;52.740;6.784;2022-12-22T12:59:47;18.00;76.50
59301;DHT22;45073;52.740;6.784;2022-12-22T13:08:09;18.50;73.40
59301;DHT22;45073;52.740;6.784;2022-12-22T13:10:48;18.70;71.60
59301;DHT22;45073;52.740;6.784;2022-12-22T13:21:07;19.20;69.30
59301;DHT22;45073;52.740;6.784;2022-12-22T13:23:43;19.60;68.50
59301;DHT22;45073;52.740;6.784;2022-12-22T13:26:18;19.80;67.70
59301;DHT22;45073;52.740;6.784;2022-12-22T13:28:52;20.00;66.10
59301;DHT22;45073;52.740;6.784;2022-12-22T13:31:23;19.90;65.80
59301;DHT22;45073;52.740;6.784;2022-12-22T13:36:48;19.60;66.10
59301;DHT22;45073;52.740;6.784;2022-12-22T13:39:15;19.30;65.70
59301;DHT22;45073;52.740;6.784;2022-12-22T13:41:43;19.30;66.10
59301;DHT22;45073;52.740;6.784;2022-12-22T13:44:28;19.10;65.60
59301;DHT22;45073;52.740;6.784;2022-12-22T13:47:03;18.80;65.20
59301;DHT22;45073;52.740;6.784;2022-12-22T13:49:31;18.50;66.70
59301;DHT22;45073;52.740;6.784;2022-12-22T13:51:59;18.40;66.80
59301;DHT22;45073;52.740;6.784;2022-12-22T13:54:29;18.40;66.60
59301;DHT22;45073;52.740;6.784;2022-12-22T13:56:58;18.50;66.70
59301;DHT22;45073;52.740;6.784;2022-12-22T13:59:31;18.60;66.80
59301;DHT22;45073;52.740;6.784;2022-12-22T14:04:33;18.70;66.50
59301;DHT22;45073;52.740;6.784;2022-12-22T14:07:12;19.00;66.80
59301;DHT22;45073;52.740;6.784;2022-12-22T14:09:49;18.90;65.40
59301;DHT22;45073;52.740;6.784;2022-12-22T14:12:18;18.40;66.00
59301;DHT22;45073;52.740;6.784;2022-12-22T14:14:46;17.70;67.00
59301;DHT22;45073;52.740;6.784;2022-12-22T14:19:55;16.10;70.10
59301;DHT22;45073;52.740;6.784;2022-12-22T14:24:58;15.10;74.30
59301;DHT22;45073;52.740;6.784;2022-12-22T14:27:48;15.00;75.30
59301;DHT22;45073;52.740;6.784;2022-12-22T14:30:20;14.90;76.10
59301;DHT22;45073;52.740;6.784;2022-12-22T14:32:51;14.80;76.80
59301;DHT22;45073;52.740;6.784;2022-12-22T14:35:21;14.80;77.50
59301;DHT22;45073;52.740;6.784;2022-12-22T14:38:19;14.70;77.80
59301;DHT22;45073;52.740;6.784;2022-12-22T14:40:45;14.40;78.00
59301;DHT22;45073;52.740;6.784;2022-12-22T14:43:23;14.00;80.20
59301;DHT22;45073;52.740;6.784;2022-12-22T14:45:59;13.40;82.60
59301;DHT22;45073;52.740;6.784;2022-12-22T14:48:31;12.80;87.20
59301;DHT22;45073;52.740;6.784;2022-12-22T14:50:57;12.40;91.50
59301;DHT22;45073;52.740;6.784;2022-12-22T14:53:35;12.10;93.80
59301;DHT22;45073;52.740;6.784;2022-12-22T14:56:01;12.00;97.20
59301;DHT22;45073;52.740;6.784;2022-12-22T14:58:31;11.70;97.80
59301;DHT22;45073;52.740;6.784;2022-12-22T15:01:23;11.50;99.90
59301;DHT22;45073;52.740;6.784;2022-12-22T15:04:07;11.30;99.90
59301;DHT22;45073;52.740;6.784;2022-12-22T15:06:44;11.10;99.90
59301;DHT22;45073;52.740;6.784;2022-12-22T15:11:50;10.70;99.90
59301;DHT22;45073;52.740;6.784;2022-12-22T15:14:22;10.60;99.90
59301;DHT22;45073;52.740;6.784;2022-12-22T15:16:49;10.50;99.90
59301;DHT22;45073;52.740;6.784;2022-12-22T15:19:17;10.30;99.90
59301;DHT22;45073;52.740;6.784;2022-12-22T15:21:45;10.20;99.90
59301;DHT22;45073;52.740;6.784;2022-12-22T15:24:12;10.20;99.90
59301;DHT22;45073;52.740;6.784;2022-12-22T15:26:40;10.00;99.90
59301;DHT22;45073;52.740;6.784;2022-12-22T15:29:05;10.00;99.90
59301;DHT22;45073;52.740;6.784;2022-12-22T15:31:31;9.90;99.90
59301;DHT22;45073;52.740;6.784;2022-12-22T15:34:00;9.90;99.90
59301;DHT22;45073;52.740;6.784;2022-12-22T15:36:26;9.90;99.90
59301;DHT22;45073;52.740;6.784;2022-12-22T15:38:52;9.80;99.90
59301;DHT22;45073;52.740;6.784;2022-12-22T15:41:17;9.80;99.90
59301;DHT22;45073;52.740;6.784;2022-12-22T15:43:43;9.80;99.90
59301;DHT22;45073;52.740;6.784;2022-12-22T15:46:15;9.80;99.90
59301;DHT22;45073;52.740;6.784;2022-12-22T15:48:43;9.80;99.90
59301;DHT22;45073;52.740;6.784;2022-12-22T15:51:21;9.70;99.90
59301;DHT22;45073;52.740;6.784;2022-12-22T15:53:47;9.70;99.90
59301;DHT22;45073;52.740;6.784;2022-12-22T15:56:20;9.70;99.90
59301;DHT22;45073;52.740;6.784;2022-12-22T15:58:46;9.70;99.90
59301;DHT22;45073;52.740;6.784;2022-12-22T16:01:12;9.60;99.90
59301;DHT22;45073;52.740;6.784;2022-12-22T16:03:38;9.60;99.90
59301;DHT22;45073;52.740;6.784;2022-12-22T16:06:04;9.60;99.90
59301;DHT22;45073;52.740;6.784;2022-12-22T16:08:36;9.50;99.90
59301;DHT22;45073;52.740;6.784;2022-12-22T16:11:03;9.40;99.90
59301;DHT22;45073;52.740;6.784;2022-12-22T16:13:30;9.40;99.90
59301;DHT22;45073;52.740;6.784;2022-12-22T16:15:56;9.40;99.90
59301;DHT22;45073;52.740;6.784;2022-12-22T16:18:22;9.40;99.90
59301;DHT22;45073;52.740;6.784;2022-12-22T16:20:48;9.30;99.90
59301;DHT22;45073;52.740;6.784;2022-12-22T16:23:22;9.30;99.90
59301;DHT22;45073;52.740;6.784;2022-12-22T16:25:48;9.20;99.90
59301;DHT22;45073;52.740;6.784;2022-12-22T16:28:19;9.20;99.90
59301;DHT22;45073;52.740;6.784;2022-12-22T16:30:45;9.10;99.90
59301;DHT22;45073;52.740;6.784;2022-12-22T16:33:12;9.10;99.90
59301;DHT22;45073;52.740;6.784;2022-12-22T16:35:39;9.10;99.90
59301;DHT22;45073;52.740;6.784;2022-12-22T16:38:04;9.10;99.90
59301;DHT22;45073;52.740;6.784;2022-12-22T16:40:31;9.10;99.90
59301;DHT22;45073;52.740;6.784;2022-12-22T16:45:35;9.00;99.90
59301;DHT22;45073;52.740;6.784;2022-12-22T16:48:05;9.00;99.90
59301;DHT22;45073;52.740;6.784;2022-12-22T16:50:32;9.00;99.90
59301;DHT22;45073;52.740;6.784;2022-12-22T16:53:03;9.00;99.90
59301;DHT22;45073;52.740;6.784;2022-12-22T16:55:30;9.00;99.90
59301;DHT22;45073;52.740;6.784;2022-12-22T16:57:56;8.90;99.90
59301;DHT22;45073;52.740;6.784;2022-12-22T17:00:27;8.90;99.90
59301;DHT22;45073;52.740;6.784;2022-12-22T17:03:03;8.90;99.90
59301;DHT22;45073;52.740;6.784;2022-12-22T17:05:49;8.90;99.90
59301;DHT22;45073;52.740;6.784;2022-12-22T17:08:27;8.90;99.90
59301;DHT22;45073;52.740;6.784;2022-12-22T17:10:55;8.80;99.90
59301;DHT22;45073;52.740;6.784;2022-12-22T17:13:22;8.80;99.90
59301;DHT22;45073;52.740;6.784;2022-12-22T17:15:48;8.80;99.90
59301;DHT22;45073;52.740;6.784;2022-12-22T17:18:16;8.80;99.90
59301;DHT22;45073;52.740;6.784;2022-12-22T17:20:42;8.80;99.90
59301;DHT22;45073;52.740;6.784;2022-12-22T17:23:21;8.80;99.90
59301;DHT22;45073;52.740;6.784;2022-12-22T17:25:47;8.80;99.90
59301;DHT22;45073;52.740;6.784;2022-12-22T17:28:13;8.70;99.90
59301;DHT22;45073;52.740;6.784;2022-12-22T17:30:39;8.70;99.90
59301;DHT22;45073;52.740;6.784;2022-12-22T17:33:04;8.70;99.90
59301;DHT22;45073;52.740;6.784;2022-12-22T17:35:30;8.70;99.90
59301;DHT22;45073;52.740;6.784;2022-12-22T17:37:58;8.70;99.90
59301;DHT22;45073;52.740;6.784;2022-12-22T17:40:26;8.70;99.90
59301;DHT22;45073;52.740;6.784;2022-12-22T17:42:53;8.70;99.90
59301;DHT22;45073;52.740;6.784;2022-12-22T17:45:19;8.70;99.90
59301;DHT22;45073;52.740;6.784;2022-12-22T17:47:45;8.70;99.90
59301;DHT22;45073;52.740;6.784;2022-12-22T17:50:15;8.70;99.90
59301;DHT22;45073;52.740;6.784;2022-12-22T17:52:42;8.70;99.90
59301;DHT22;45073;52.740;6.784;2022-12-22T17:55:21;8.70;99.90
59301;DHT22;45073;52.740;6.784;2022-12-22T17:57:48;8.70;99.90
59301;DHT22;45073;52.740;6.784;2022-12-22T18:02:42;8.70;99.90
59301;DHT22;45073;52.740;6.784;2022-12-22T18:05:16;8.70;99.90
59301;DHT22;45073;52.740;6.784;2022-12-22T18:07:43;8.70;99.90
59301;DHT22;45073;52.740;6.784;2022-12-22T18:10:33;8.60;99.90
59301;DHT22;45073;52.740;6.784;2022-12-22T18:13:00;8.70;99.90